createdAt,value
2018-03-01T00:00:34.590Z,12.40
2018-03-01T00:03:02.104Z,12.17
2018-03-01T00:05:29.595Z,13.97
2018-03-01T00:07:57.112Z,11.70
2018-03-01T00:10:24.610Z,12.60
2018-03-01T00:12:52.136Z,12.00
2018-03-01T00:15:20.397Z,13.37
2018-03-01T00:17:47.909Z,13.47
2018-03-01T00:20:15.403Z,12.47
2018-03-01T00:22:42.919Z,12.03
2018-03-01T00:25:10.422Z,13.00
2018-03-01T00:27:37.963Z,13.20
2018-03-01T00:30:05.459Z,12.33
2018-03-01T00:32:32.999Z,10.83
2018-03-01T00:35:01.272Z,13.10
2018-03-01T00:37:28.788Z,12.30
2018-03-01T00:39:56.289Z,12.23
2018-03-01T00:42:23.811Z,12.70
2018-03-01T00:44:52.076Z,13.63
2018-03-01T00:47:19.596Z,12.17
2018-03-01T00:49:47.099Z,12.90
2018-03-01T00:52:14.619Z,12.57
2018-03-01T00:54:42.881Z,12.63
2018-03-01T00:57:10.400Z,10.20
2018-03-01T00:59:37.912Z,12.10
2018-03-01T01:02:05.444Z,10.83
2018-03-01T01:04:32.936Z,12.03
2018-03-01T01:07:00.451Z,12.27
2018-03-01T01:09:28.713Z,12.03
2018-03-01T01:11:56.229Z,13.20
2018-03-01T01:14:23.720Z,12.70
2018-03-01T01:16:51.211Z,12.40
2018-03-01T01:19:18.720Z,11.60
2018-03-01T01:21:46.976Z,11.93
2018-03-01T01:24:14.487Z,10.80
2018-03-01T01:26:42.744Z,9.90
2018-03-01T01:29:10.265Z,12.20
2018-03-01T01:31:37.758Z,13.10
2018-03-01T01:34:05.281Z,10.90
2018-03-01T01:36:32.785Z,12.70
2018-03-01T01:39:00.295Z,11.57
2018-03-01T01:41:27.787Z,10.37
2018-03-01T01:43:55.295Z,11.97
2018-03-01T01:46:22.784Z,12.40
2018-03-01T01:48:50.309Z,12.77
2018-03-01T01:51:18.573Z,12.20
2018-03-01T01:53:46.861Z,12.57
2018-03-01T01:56:14.356Z,12.20
2018-03-01T01:58:41.870Z,12.73
2018-03-01T02:01:09.364Z,12.83
2018-03-01T02:03:36.879Z,11.97
2018-03-01T02:06:04.377Z,12.17
2018-03-01T02:08:31.887Z,12.97
2018-03-01T02:11:00.143Z,11.27
2018-03-01T02:13:27.665Z,11.20
2018-03-01T02:15:55.159Z,12.30
2018-03-01T02:18:22.680Z,10.10
2018-03-01T02:20:50.173Z,11.40
2018-03-01T02:23:17.687Z,11.00
2018-03-01T02:25:45.192Z,12.37
2018-03-01T02:28:12.709Z,12.10
2018-03-01T02:30:40.215Z,12.70
2018-03-01T02:33:07.723Z,12.87
2018-03-01T02:35:35.223Z,10.80
2018-03-01T02:38:02.732Z,12.57
2018-03-01T02:40:30.255Z,11.70
2018-03-01T02:42:57.776Z,11.40
2018-03-01T02:45:25.273Z,11.37
2018-03-01T02:47:53.552Z,13.97
2018-03-01T02:50:21.817Z,11.67
2018-03-01T02:52:49.331Z,12.57
2018-03-01T02:55:16.820Z,12.30
2018-03-01T02:57:44.331Z,12.20
2018-03-01T03:00:11.825Z,11.70
2018-03-01T03:02:40.112Z,11.60
2018-03-01T03:05:08.372Z,11.80
2018-03-01T03:07:35.882Z,12.23
2018-03-01T03:10:03.367Z,12.73
2018-03-01T03:12:30.875Z,12.10
2018-03-01T03:14:58.368Z,12.07
2018-03-01T03:17:25.888Z,12.77
2018-03-01T03:19:53.376Z,11.70
2018-03-01T03:22:20.872Z,12.90
2018-03-01T03:24:48.392Z,12.17
2018-03-01T03:27:15.887Z,13.07
2018-03-01T03:29:43.403Z,13.00
2018-03-01T03:32:10.892Z,12.03
2018-03-01T03:34:38.400Z,12.43
2018-03-01T03:37:05.886Z,12.30
2018-03-01T03:39:33.399Z,12.20
2018-03-01T03:42:00.884Z,12.07
2018-03-01T03:44:28.413Z,12.10
2018-03-01T03:46:55.923Z,12.47
2018-03-01T03:49:23.454Z,13.33
2018-03-01T03:51:51.714Z,12.97
2018-03-01T03:54:19.227Z,11.67
2018-03-01T03:56:46.719Z,12.20
2018-03-01T03:59:14.227Z,12.13
2018-03-01T04:01:41.716Z,12.03
2018-03-01T04:04:09.229Z,12.40
2018-03-01T04:06:37.491Z,13.00
2018-03-01T04:09:05.005Z,12.67
2018-03-01T04:11:32.506Z,12.30
2018-03-01T04:14:00.021Z,12.03
2018-03-01T04:16:27.519Z,11.07
2018-03-01T04:18:55.031Z,11.80
2018-03-01T04:21:22.528Z,12.13
2018-03-01T04:23:50.036Z,13.23
2018-03-01T04:26:17.533Z,11.60
2018-03-01T04:28:45.053Z,12.93
2018-03-01T04:31:12.548Z,13.03
2018-03-01T04:33:40.065Z,10.10
2018-03-01T04:36:08.315Z,11.30
2018-03-01T04:38:35.828Z,11.73
2018-03-01T04:41:04.080Z,11.37
2018-03-01T04:43:31.589Z,11.80
2018-03-01T04:45:59.842Z,11.60
2018-03-01T04:48:27.359Z,11.83
2018-03-01T04:50:54.852Z,10.03
2018-03-01T04:53:22.363Z,10.80
2018-03-01T04:55:49.846Z,12.20
2018-03-01T04:58:18.128Z,10.80
2018-03-01T05:00:45.615Z,12.40
2018-03-01T05:03:13.107Z,11.80
2018-03-01T05:05:40.607Z,11.53
2018-03-01T05:08:08.092Z,10.50
2018-03-01T05:10:35.599Z,11.87
2018-03-01T05:13:03.846Z,12.57
2018-03-01T05:15:31.356Z,10.83
2018-03-01T05:17:58.863Z,12.00
2018-03-01T05:20:26.376Z,9.33
2018-03-01T05:22:53.896Z,11.13
2018-03-01T05:25:21.413Z,11.57
2018-03-01T05:27:48.901Z,10.50
2018-03-01T05:30:16.506Z,12.60
2018-03-01T05:32:44.016Z,10.83
2018-03-01T05:35:11.543Z,10.50
2018-03-01T05:37:39.036Z,11.30
2018-03-01T05:40:06.584Z,10.97
2018-03-01T05:42:34.084Z,10.37
2018-03-01T05:45:01.595Z,9.97
2018-03-01T05:47:30.154Z,11.70
2018-03-01T05:49:59.217Z,10.40
2018-03-01T05:52:26.705Z,10.57
2018-03-01T05:54:55.051Z,11.60
2018-03-01T05:57:22.588Z,11.10
2018-03-01T05:59:50.103Z,11.00
2018-03-01T06:02:18.395Z,10.90
2018-03-01T06:04:46.671Z,10.33
2018-03-01T06:07:14.929Z,10.23
2018-03-01T06:09:42.435Z,11.60
2018-03-01T06:12:10.684Z,10.73
2018-03-01T06:14:38.195Z,11.00
2018-03-01T06:17:06.451Z,10.00
2018-03-01T06:19:33.970Z,10.30
2018-03-01T06:22:01.466Z,10.70
2018-03-01T06:24:28.965Z,11.57
2018-03-01T06:26:56.471Z,11.50
2018-03-01T06:29:24.724Z,9.63
2018-03-01T06:31:52.289Z,11.13
2018-03-01T06:34:19.783Z,9.73
2018-03-01T06:36:47.287Z,10.40
2018-03-01T06:39:14.776Z,11.23
2018-03-01T06:41:42.282Z,36.30
2018-03-01T06:44:09.768Z,10.80
2018-03-01T06:46:38.089Z,10.20
2018-03-01T06:49:05.554Z,10.50
2018-03-01T06:51:33.059Z,11.23
2018-03-01T06:54:00.543Z,10.47
2018-03-01T06:56:28.043Z,11.20
2018-03-01T06:58:55.528Z,10.73
2018-03-01T07:01:23.031Z,9.60
2018-03-01T07:03:50.511Z,11.73
2018-03-01T07:06:18.023Z,12.10
2018-03-01T07:08:46.267Z,10.50
2018-03-01T07:11:13.805Z,9.70
2018-03-01T07:13:42.032Z,10.33
2018-03-01T07:16:09.542Z,10.57
2018-03-01T07:18:37.795Z,10.20
2018-03-01T07:21:05.311Z,9.90
2018-03-01T07:23:33.555Z,11.10
2018-03-01T07:26:01.044Z,8.70
2018-03-01T07:28:28.548Z,9.97
2018-03-01T07:30:56.036Z,9.70
2018-03-01T07:33:23.543Z,10.37
2018-03-01T07:35:51.024Z,9.90
2018-03-01T07:38:18.526Z,9.63
2018-03-01T07:40:46.013Z,9.77
2018-03-01T07:43:13.515Z,7.40
2018-03-01T07:45:40.996Z,9.07
2018-03-01T07:48:08.504Z,10.07
2018-03-01T07:50:35.995Z,10.27
2018-03-01T07:53:03.499Z,10.47
2018-03-01T07:55:30.984Z,9.80
2018-03-01T07:57:58.488Z,9.27
2018-03-01T08:00:25.976Z,9.80
2018-03-01T08:02:53.460Z,9.83
2018-03-01T08:05:20.964Z,8.93
2018-03-01T08:07:48.444Z,11.73
2018-03-01T08:10:16.716Z,9.70
2018-03-01T08:12:44.208Z,10.60
2018-03-01T08:15:12.476Z,9.60
2018-03-01T08:17:39.963Z,10.40
2018-03-01T08:20:08.236Z,14.70
2018-03-01T08:22:35.716Z,11.97
2018-03-01T08:25:03.220Z,8.97
2018-03-01T08:27:30.708Z,8.93
2018-03-01T08:29:58.212Z,10.20
2018-03-01T08:32:25.695Z,10.20
2018-03-01T08:34:53.196Z,11.00
2018-03-01T08:37:20.700Z,9.27
2018-03-01T08:39:48.207Z,8.60
2018-03-01T08:42:15.691Z,9.80
2018-03-01T08:44:43.979Z,8.57
2018-03-01T08:47:12.231Z,9.20
2018-03-01T08:49:39.740Z,8.87
2018-03-01T08:52:07.991Z,10.53
2018-03-01T08:54:35.508Z,8.80
2018-03-01T08:57:02.998Z,10.40
2018-03-01T08:59:30.488Z,10.50
2018-03-01T09:01:57.983Z,9.70
2018-03-01T09:04:25.471Z,9.53
2018-03-01T09:06:53.751Z,11.53
2018-03-01T09:09:21.999Z,9.73
2018-03-01T09:11:49.497Z,9.47
2018-03-01T09:14:16.980Z,9.63
2018-03-01T09:16:45.256Z,10.57
2018-03-01T09:19:12.742Z,10.30
2018-03-01T09:21:41.013Z,11.53
2018-03-01T09:24:08.496Z,8.40
2018-03-01T09:26:35.999Z,10.73
2018-03-01T09:29:03.488Z,11.00
2018-03-01T09:31:30.986Z,10.20
2018-03-01T09:33:58.475Z,10.77
2018-03-01T09:36:25.975Z,10.57
2018-03-01T09:38:53.463Z,10.03
2018-03-01T09:41:20.964Z,10.20
2018-03-01T09:43:48.456Z,10.93
2018-03-01T09:46:15.959Z,11.17
2018-03-01T09:48:43.444Z,11.60
2018-03-01T09:51:10.952Z,9.90
2018-03-01T09:53:38.440Z,11.33
2018-03-01T09:56:06.715Z,10.77
2018-03-01T09:58:34.197Z,10.37
2018-03-01T10:01:01.694Z,10.70
2018-03-01T10:03:29.180Z,10.80
2018-03-01T10:05:56.684Z,11.10
2018-03-01T10:08:24.168Z,10.33
2018-03-01T10:10:51.669Z,12.40
2018-03-01T10:13:19.148Z,10.53
2018-03-01T10:15:46.648Z,14.70
2018-03-01T10:18:14.132Z,13.57
2018-03-01T10:20:41.639Z,12.50
2018-03-01T10:23:09.881Z,10.70
2018-03-01T10:25:37.381Z,11.77
2018-03-01T10:28:06.368Z,11.80
2018-03-01T10:30:33.867Z,11.50
2018-03-01T10:33:02.112Z,27.23
2018-03-01T10:35:29.616Z,26.93
2018-03-01T10:37:57.109Z,14.53
2018-03-01T10:40:25.372Z,11.77
2018-03-01T10:42:52.852Z,12.40
2018-03-01T10:45:21.115Z,11.40
2018-03-01T10:47:48.602Z,12.60
2018-03-01T10:50:16.866Z,11.20
2018-03-01T10:52:44.356Z,11.90
2018-03-01T10:55:11.858Z,12.77
2018-03-01T10:57:39.344Z,10.67
2018-03-01T11:00:07.615Z,10.67
2018-03-01T11:02:35.859Z,11.50
2018-03-01T11:05:03.348Z,19.30
2018-03-01T11:07:30.843Z,12.30
2018-03-01T11:09:58.324Z,10.50
2018-03-01T11:12:25.823Z,10.70
2018-03-01T11:14:53.304Z,10.93
2018-03-01T11:17:20.805Z,10.33
2018-03-01T11:19:49.060Z,11.47
2018-03-01T11:22:16.559Z,11.40
2018-03-01T11:24:44.803Z,13.50
2018-03-01T11:27:12.308Z,10.40
2018-03-01T11:29:39.794Z,10.67
2018-03-01T11:32:08.056Z,14.07
2018-03-01T11:34:35.531Z,11.90
2018-03-01T11:37:03.031Z,10.47
2018-03-01T11:39:31.285Z,11.33
2018-03-01T11:41:58.787Z,10.70
2018-03-01T11:44:27.035Z,11.23
2018-03-01T11:46:54.537Z,11.53
2018-03-01T11:49:22.783Z,15.67
2018-03-01T11:51:51.057Z,10.70
2018-03-01T11:54:18.543Z,10.90
2018-03-01T11:56:46.047Z,9.23
2018-03-01T11:59:13.528Z,10.00
2018-03-01T12:01:41.796Z,10.83
2018-03-01T12:04:09.280Z,12.07
2018-03-01T12:06:37.549Z,12.13
2018-03-01T12:09:05.032Z,10.20
2018-03-01T12:11:32.532Z,10.90
2018-03-01T12:14:00.028Z,9.50
2018-03-01T12:16:27.533Z,10.63
2018-03-01T12:18:55.024Z,11.03
2018-03-01T12:21:23.300Z,11.10
2018-03-01T12:23:50.776Z,10.77
2018-03-01T12:26:19.045Z,10.60
2018-03-01T12:28:46.519Z,10.37
2018-03-01T12:31:14.027Z,14.90
2018-03-01T12:33:41.512Z,13.37
2018-03-01T12:36:09.012Z,11.10
2018-03-01T12:38:36.488Z,11.47
2018-03-01T12:41:03.987Z,11.40
2018-03-01T12:43:32.237Z,11.23
2018-03-01T12:45:59.780Z,10.67
2018-03-01T12:48:28.001Z,11.20
2018-03-01T12:50:55.491Z,9.93
2018-03-01T12:53:22.975Z,10.73
2018-03-01T12:55:51.243Z,11.00
2018-03-01T12:58:18.724Z,10.70
2018-03-01T13:00:46.253Z,11.03
2018-03-01T13:03:13.723Z,12.30
2018-03-01T13:05:41.227Z,11.00
2018-03-01T13:08:08.702Z,10.40
2018-03-01T13:10:37.647Z,10.90
2018-03-01T13:13:05.127Z,11.10
2018-03-01T13:15:32.599Z,12.17
2018-03-01T13:18:00.095Z,12.43
2018-03-01T13:20:27.580Z,11.50
2018-03-01T13:22:55.087Z,11.87
2018-03-01T13:25:22.572Z,11.60
2018-03-01T13:27:50.080Z,10.93
2018-03-01T13:30:19.483Z,10.60
2018-03-01T13:35:53.620Z,12.27
2018-03-01T13:38:21.104Z,11.00
2018-03-01T13:40:48.603Z,10.80
2018-03-01T13:43:16.100Z,10.67
2018-03-01T13:45:45.159Z,12.03
2018-03-01T13:48:12.662Z,11.70
2018-03-01T13:50:40.152Z,11.57
2018-03-01T13:53:08.419Z,11.43
2018-03-01T13:55:35.903Z,21.20
2018-03-01T13:58:04.172Z,14.17
2018-03-01T14:00:31.650Z,11.63
2018-03-01T14:02:59.151Z,11.53
2018-03-01T14:05:26.637Z,10.70
2018-03-01T14:07:56.751Z,11.30
2018-03-01T14:10:24.240Z,11.10
2018-03-01T14:12:52.354Z,9.73
2018-03-01T14:15:19.831Z,11.60
2018-03-01T14:17:53.124Z,11.60
2018-03-01T14:23:54.852Z,10.57
2018-03-01T14:26:26.820Z,10.50
2018-03-01T14:28:57.942Z,12.03
2018-03-01T14:31:25.459Z,14.23
2018-03-01T14:33:52.940Z,11.40
2018-03-01T14:36:21.187Z,12.47
2018-03-01T14:38:48.692Z,10.50
2018-03-01T14:41:16.175Z,9.83
2018-03-01T14:43:45.138Z,10.90
2018-03-01T14:46:12.622Z,11.40
2018-03-01T14:48:40.127Z,12.10
2018-03-01T14:51:07.608Z,10.77
2018-03-01T14:53:35.116Z,10.53
2018-03-01T14:56:02.603Z,10.97
2018-03-01T14:58:30.108Z,12.40
2018-03-01T15:00:57.586Z,11.40
2018-03-01T15:03:25.088Z,11.90
2018-03-01T15:05:52.584Z,12.53
2018-03-01T15:08:20.079Z,11.70
2018-03-01T15:10:48.324Z,11.50
2018-03-01T15:13:15.819Z,11.83
2018-03-01T15:15:43.308Z,10.73
2018-03-01T15:18:11.574Z,11.73
2018-03-01T15:20:39.060Z,10.27
2018-03-01T15:23:07.324Z,12.27
2018-03-01T15:25:34.808Z,23.50
2018-03-01T15:28:02.313Z,12.27
2018-03-01T15:30:29.799Z,11.80
2018-03-01T15:32:57.301Z,11.03
2018-03-01T15:35:24.787Z,11.83
2018-03-01T15:37:52.293Z,10.97
2018-03-01T15:40:19.772Z,12.53
2018-03-01T15:42:47.244Z,12.13
2018-03-01T15:45:14.748Z,11.33
2018-03-01T15:47:42.228Z,12.37
2018-03-01T15:50:09.738Z,10.70
2018-03-01T15:52:37.219Z,13.30
2018-03-01T15:55:04.723Z,12.40
2018-03-01T15:57:32.211Z,11.23
2018-03-01T15:59:59.708Z,12.33
2018-03-01T16:02:27.180Z,11.73
2018-03-01T16:04:55.439Z,11.50
2018-03-01T16:07:22.919Z,12.23
2018-03-01T16:09:50.419Z,12.00
2018-03-01T16:12:17.895Z,12.20
2018-03-01T16:14:45.405Z,10.57
2018-03-01T16:17:12.892Z,21.17
2018-03-01T16:19:40.400Z,21.50
2018-03-01T16:22:07.883Z,13.47
2018-03-01T16:24:35.379Z,11.80
2018-03-01T16:27:02.863Z,12.63
2018-03-01T16:29:30.363Z,12.60
2018-03-01T16:31:58.609Z,12.60
2018-03-01T16:34:26.117Z,11.67
2018-03-01T16:36:54.372Z,13.10
2018-03-01T16:39:21.889Z,11.97
2018-03-01T16:41:50.132Z,11.37
2018-03-01T16:44:17.635Z,12.43
2018-03-01T16:46:45.884Z,13.43
2018-03-01T16:49:13.392Z,12.10
2018-03-01T16:51:41.652Z,13.00
2018-03-01T16:54:09.164Z,12.87
2018-03-01T16:56:36.651Z,12.33
2018-03-01T16:59:04.152Z,11.80
2018-03-01T17:01:36.352Z,12.80
2018-03-01T17:04:03.851Z,15.80
2018-03-01T17:06:32.099Z,11.80
2018-03-01T17:08:59.599Z,11.93
2018-03-01T17:11:27.844Z,13.47
2018-03-01T17:13:55.352Z,12.80
2018-03-01T17:16:22.832Z,11.93
2018-03-01T17:18:51.104Z,13.70
2018-03-01T17:21:18.579Z,13.03
2018-03-01T17:23:46.079Z,12.63
2018-03-01T17:26:13.568Z,12.77
2018-03-01T17:28:41.075Z,13.00
2018-03-01T17:31:08.563Z,13.37
2018-03-01T17:33:36.836Z,13.53
2018-03-01T17:36:04.316Z,12.67
2018-03-01T17:38:31.819Z,29.00
2018-03-01T17:40:59.299Z,13.73
2018-03-01T17:43:26.803Z,12.60
2018-03-01T17:45:54.283Z,14.60
2018-03-01T17:48:21.780Z,12.83
2018-03-01T17:50:50.036Z,13.20
2018-03-01T17:53:17.523Z,14.17
2018-03-01T17:55:45.808Z,13.47
2018-03-01T17:58:13.292Z,13.57
2018-03-01T18:00:41.564Z,14.43
2018-03-01T18:03:09.051Z,12.93
2018-03-01T18:05:37.315Z,14.20
2018-03-01T18:08:04.797Z,12.63
2018-03-01T18:10:32.304Z,14.67
2018-03-01T18:12:59.788Z,15.60
2018-03-01T18:15:27.294Z,14.07
2018-03-01T18:17:54.779Z,14.50
2018-03-01T18:20:22.287Z,14.70
2018-03-01T18:22:49.768Z,14.90
2018-03-01T18:25:17.272Z,14.30
2018-03-01T18:27:44.756Z,14.77
2018-03-01T18:30:12.256Z,16.03
2018-03-01T18:32:39.752Z,16.03
2018-03-01T18:35:07.260Z,16.10
2018-03-01T18:37:34.742Z,15.83
2018-03-01T18:40:02.453Z,15.40
2018-03-01T18:42:29.967Z,15.47
2018-03-01T18:50:21.717Z,16.20
2018-03-01T18:52:52.514Z,15.57
2018-03-01T18:55:22.894Z,16.10
2018-03-01T18:57:54.538Z,16.73
2018-03-01T19:00:27.922Z,15.80
2018-03-01T19:02:57.554Z,22.23
2018-03-01T19:05:28.659Z,19.87
2018-03-01T19:07:57.955Z,17.17
2018-03-01T19:10:26.230Z,17.17
2018-03-01T19:12:54.489Z,17.20
2018-03-01T19:15:22.163Z,17.50
2018-03-01T19:17:50.445Z,16.97
2018-03-01T19:20:17.945Z,16.67
2018-03-01T19:22:45.431Z,17.57
2018-03-01T19:25:13.716Z,17.80
2018-03-01T19:27:41.963Z,15.60
2018-03-01T19:30:09.478Z,17.00
2018-03-01T19:32:37.731Z,18.60
2018-03-01T19:35:05.243Z,17.50
2018-03-01T19:37:32.752Z,18.13
2018-03-01T19:40:00.251Z,17.87
2018-03-01T19:42:27.744Z,18.60
2018-03-01T19:44:56.027Z,17.77
2018-03-01T19:47:24.280Z,20.10
2018-03-01T19:49:51.816Z,17.47
2018-03-01T19:52:20.078Z,17.80
2018-03-01T19:54:48.328Z,18.50
2018-03-01T19:57:15.832Z,17.47
2018-03-01T19:59:44.088Z,16.73
2018-03-01T20:02:11.600Z,19.43
2018-03-01T20:04:39.868Z,18.10
2018-03-01T20:07:07.375Z,17.97
2018-03-01T20:09:34.872Z,18.27
2018-03-01T20:12:02.385Z,17.83
2018-03-01T20:14:29.873Z,17.83
2018-03-01T20:16:58.148Z,18.93
2018-03-01T20:19:26.401Z,18.70
2018-03-01T20:21:53.904Z,34.37
2018-03-01T20:24:22.148Z,19.90
2018-03-01T20:26:49.650Z,19.10
2018-03-01T20:29:17.132Z,20.63
2018-03-01T20:31:44.640Z,18.77
2018-03-01T20:34:12.123Z,18.40
2018-03-01T20:36:39.622Z,19.10
2018-03-01T20:39:07.104Z,18.30
2018-03-01T20:41:34.618Z,18.37
2018-03-01T20:44:02.109Z,20.83
2018-03-01T20:46:29.615Z,20.20
2018-03-01T20:48:57.104Z,19.30
2018-03-01T20:51:25.405Z,17.93
2018-03-01T20:53:52.896Z,19.10
2018-03-01T20:56:20.395Z,20.13
2018-03-01T20:58:47.898Z,18.80
2018-03-01T21:01:16.164Z,18.07
2018-03-01T21:03:43.687Z,20.00
2018-03-01T21:06:11.168Z,20.10
2018-03-01T21:08:38.675Z,19.77
2018-03-01T21:11:06.171Z,18.80
2018-03-01T21:13:34.463Z,18.73
2018-03-01T21:16:02.712Z,19.37
2018-03-01T21:18:30.212Z,20.23
2018-03-01T21:20:58.464Z,20.47
2018-03-01T21:23:25.976Z,19.20
2018-03-01T21:25:56.161Z,21.40
2018-03-01T21:30:59.958Z,20.47
2018-03-01T21:33:27.468Z,19.67
2018-03-01T21:35:55.601Z,18.50
2018-03-01T21:38:23.112Z,21.37
2018-03-01T21:40:50.600Z,21.37
2018-03-01T21:43:18.103Z,20.53
2018-03-01T21:45:52.055Z,19.80
2018-03-01T21:48:19.647Z,21.43
2018-03-01T21:50:47.131Z,19.60
2018-03-01T21:53:14.623Z,21.63
2018-03-01T21:55:42.412Z,20.53
2018-03-01T21:58:09.896Z,20.27
2018-03-01T22:00:37.395Z,19.63
2018-03-01T22:03:04.892Z,19.50
2018-03-01T22:05:32.399Z,20.30
2018-03-01T22:07:59.882Z,20.37
2018-03-01T22:10:28.156Z,19.50
2018-03-01T22:12:55.652Z,20.43
2018-03-01T22:15:23.172Z,21.70
2018-03-01T22:17:50.665Z,21.10
2018-03-01T22:20:18.176Z,23.43
2018-03-01T22:22:45.664Z,22.40
2018-03-01T22:25:13.181Z,19.87
2018-03-01T22:27:40.664Z,20.13
2018-03-01T22:30:08.936Z,19.63
2018-03-01T22:32:36.424Z,21.63
2018-03-01T22:35:04.700Z,19.57
2018-03-01T22:37:32.191Z,19.23
2018-03-01T22:40:00.467Z,21.20
2018-03-01T22:42:28.723Z,20.10
2018-03-01T22:44:56.235Z,20.47
2018-03-01T22:47:23.724Z,22.10
2018-03-01T22:49:51.238Z,20.20
2018-03-01T22:52:18.732Z,20.30
2018-03-01T22:54:47.008Z,21.10
2018-03-01T22:57:14.487Z,19.90
2018-03-01T22:59:42.000Z,21.13
2018-03-01T23:02:09.499Z,21.63
2018-03-01T23:04:37.011Z,20.00
2018-03-01T23:07:05.264Z,20.70
2018-03-01T23:09:32.791Z,22.03
2018-03-01T23:12:00.296Z,21.83
2018-03-01T23:14:27.784Z,19.33
2018-03-01T23:16:55.293Z,21.10
2018-03-01T23:19:22.784Z,21.17
2018-03-01T23:21:51.064Z,20.83
2018-03-01T23:24:18.547Z,21.70
2018-03-01T23:26:46.056Z,21.03
2018-03-01T23:29:13.554Z,21.13
2018-03-01T23:31:41.818Z,19.93
2018-03-01T23:34:09.295Z,21.27
2018-03-01T23:36:36.799Z,21.30
2018-03-01T23:39:04.283Z,21.93
2018-03-01T23:41:31.797Z,21.47
2018-03-01T23:43:59.287Z,21.27
2018-03-01T23:46:27.564Z,20.17
2018-03-01T23:48:55.044Z,21.23
2018-03-01T23:51:23.319Z,21.70
2018-03-01T23:53:50.803Z,22.43
2018-03-01T23:56:19.083Z,22.10
2018-03-01T23:58:46.572Z,22.10
